Time;durP1;ratioP1;P1;durP2;ratioP2;P2;SDS_P1;SDS_P2;PMS_P1;PMS_P2;Temp;Humidity;BMP_temperature;BMP_pressure;BME280_temperature;BME280_humidity;BME280_pressure;Samples;Min_cycle;Max_cycle;Signal;HPM_P1;HPM_P2
2022/05/04 00:01:23;;;;;;;4.72;4.22;;;;;;;16.10;46.15;100122.53;10378954;28;20098;-64
2022/05/04 00:06:26;;;;;;;5.22;4.47;;;;;;;16.07;46.38;100121.00;10378965;28;20104;-64
2022/05/04 00:11:27;;;;;;;4.93;4.40;;;;;;;16.03;46.11;100111.59;10376364;28;20049;-64
2022/05/04 00:16:29;;;;;;;6.13;4.47;;;;;;;15.86;46.53;100108.00;10376448;28;20046;-64
2022/05/04 00:21:31;;;;;;;6.13;4.95;;;;;;;15.92;46.37;100114.56;10375067;28;20060;-64
2022/05/04 00:26:32;;;;;;;5.07;4.65;;;;;;;15.93;46.63;100113.56;10374615;28;20059;-63
2022/05/04 00:31:33;;;;;;;5.22;4.72;;;;;;;15.93;46.92;100123.44;10378736;28;20136;-63
2022/05/04 00:36:35;;;;;;;4.55;4.13;;;;;;;15.90;46.78;100117.41;10377333;28;20052;-63
2022/05/04 00:41:36;;;;;;;6.13;5.35;;;;;;;15.85;47.00;100116.22;10377428;28;20046;-63
2022/05/04 00:46:37;;;;;;;6.15;5.57;;;;;;;15.75;47.23;100119.00;10377359;28;20169;-62
2022/05/04 00:51:39;;;;;;;5.82;4.63;;;;;;;15.58;47.94;100107.31;10377690;28;20480;-63
2022/05/04 00:56:41;;;;;;;6.68;5.10;;;;;;;15.55;47.72;100100.47;10378146;28;21748;-62
2022/05/04 01:01:42;;;;;;;6.38;4.80;;;;;;;15.47;48.32;100111.13;10383274;28;20044;-63
2022/05/04 01:06:48;;;;;;;5.78;5.20;;;;;;;15.38;48.82;100114.75;10376205;28;20054;-62
2022/05/04 01:11:51;;;;;;;5.40;5.00;;;;;;;15.17;49.37;100091.00;10375692;28;20041;-63
2022/05/04 01:16:53;;;;;;;5.75;5.18;;;;;;;15.22;49.40;100111.97;10375731;28;20132;-63
2022/05/04 01:21:54;;;;;;;6.28;4.97;;;;;;;14.98;50.46;100111.66;10375601;28;20053;-62
2022/05/04 01:26:56;;;;;;;5.20;4.55;;;;;;;14.85;50.86;100098.63;10375370;28;20073;-63
2022/05/04 01:31:57;;;;;;;5.85;5.25;;;;;;;14.96;50.54;100107.44;10372468;28;20504;-63
2022/05/04 01:37:00;;;;;;;6.68;5.97;;;;;;;14.92;51.23;100106.91;10374694;28;20588;-62
2022/05/04 01:42:13;;;;;;;6.15;5.50;;;;;;;14.94;51.10;100106.75;10371299;28;20647;-63
2022/05/04 01:47:15;;;;;;;7.28;5.18;;;;;;;14.78;51.26;100100.25;10382709;28;20060;-63
2022/05/04 01:52:16;;;;;;;6.22;5.28;;;;;;;14.85;51.69;100105.84;10378549;28;20844;-63
2022/05/04 01:57:19;;;;;;;5.50;5.00;;;;;;;14.73;52.32;100096.38;10374522;28;20056;-64
2022/05/04 02:02:21;;;;;;;6.38;5.78;;;;;;;14.72;51.77;100100.88;10374554;28;20496;-63
2022/05/04 02:07:23;;;;;;;6.25;5.65;;;;;;;14.67;52.28;100092.47;10372528;28;20608;-63
2022/05/04 02:12:27;;;;;;;6.25;5.65;;;;;;;14.62;52.49;100102.78;10374963;28;20133;-63
2022/05/04 02:17:29;;;;;;;6.68;6.07;;;;;;;14.60;53.26;100105.59;10372641;28;20055;-63
2022/05/04 02:22:31;;;;;;;6.65;6.13;;;;;;;14.55;53.34;100105.22;10375858;28;20041;-63
2022/05/04 02:27:32;;;;;;;7.28;6.40;;;;;;;14.56;53.21;100106.03;10376098;28;20482;-63
2022/05/04 02:32:34;;;;;;;6.80;5.97;;;;;;;14.41;53.65;100090.53;10370696;28;20047;-64
2022/05/04 02:42:56;;;;;;;7.90;7.15;;;;;;;14.43;54.00;100103.75;10373905;28;20636;-66
2022/05/04 02:47:58;;;;;;;7.07;6.28;;;;;;;14.39;54.58;100105.06;10371741;28;20438;-63
2022/05/04 02:52:59;;;;;;;7.00;6.38;;;;;;;14.31;54.83;100092.44;10373505;28;20060;-63
2022/05/04 02:58:01;;;;;;;8.45;6.50;;;;;;;14.42;55.02;100099.41;10371255;28;20372;-63
2022/05/04 03:03:02;;;;;;;7.65;6.45;;;;;;;14.14;55.55;100086.91;10370931;28;20041;-63
2022/05/04 03:08:04;;;;;;;8.32;6.30;;;;;;;14.26;55.26;100100.06;10370901;28;20163;-63
2022/05/04 03:13:05;;;;;;;7.00;6.30;;;;;;;14.20;55.42;100089.97;10371321;28;20049;-64
2022/05/04 03:18:07;;;;;;;7.22;6.53;;;;;;;14.18;55.48;100086.59;10373539;28;20059;-63
2022/05/04 03:23:08;;;;;;;6.82;6.13;;;;;;;14.22;56.08;100082.63;10372344;28;20045;-63
2022/05/04 03:28:10;;;;;;;8.05;7.18;;;;;;;14.33;55.36;100088.59;10371734;28;20046;-65
2022/05/04 03:33:11;;;;;;;7.18;6.47;;;;;;;14.26;55.99;100081.31;10371288;28;20052;-63
2022/05/04 03:38:12;;;;;;;8.77;6.75;;;;;;;14.27;55.78;100094.56;10372910;28;20054;-63
2022/05/04 03:43:13;;;;;;;8.32;6.70;;;;;;;14.33;56.48;100093.09;10371928;28;20053;-65
2022/05/04 03:48:15;;;;;;;9.93;8.05;;;;;;;14.32;55.97;100089.59;10371953;28;20136;-64
2022/05/04 03:53:16;;;;;;;8.45;6.85;;;;;;;14.39;55.99;100100.53;10372847;28;20053;-64
2022/05/04 03:58:18;;;;;;;7.45;6.75;;;;;;;14.33;56.49;100090.44;10370821;28;20061;-64
2022/05/04 04:03:19;;;;;;;8.73;7.13;;;;;;;14.44;56.78;100114.31;10370061;28;20915;-64
2022/05/04 04:08:21;;;;;;;7.88;7.18;;;;;;;14.29;56.94;100107.78;10383316;28;20049;-64
2022/05/04 04:13:23;;;;;;;7.93;6.53;;;;;;;14.31;56.82;100103.13;10369887;28;20131;-62
2022/05/04 04:18:25;;;;;;;7.78;6.93;;;;;;;14.35;56.36;100125.91;10375427;28;20049;-63
2022/05/04 04:23:27;;;;;;;9.43;8.48;;;;;;;14.08;57.51;100103.56;10376644;28;20515;-60
2022/05/04 04:28:28;;;;;;;9.32;7.50;;;;;;;14.26;57.12;100116.97;10377978;28;20049;-62
2022/05/04 04:33:30;;;;;;;8.10;6.95;;;;;;;14.26;57.26;100124.16;10378952;28;20064;-62
2022/05/04 04:38:32;;;;;;;8.25;7.35;;;;;;;14.19;57.06;100102.50;10371968;28;20057;-61
2022/05/04 04:43:33;;;;;;;9.60;7.32;;;;;;;14.24;56.95;100134.19;10377927;28;20103;-63
2022/05/04 04:48:34;;;;;;;8.00;7.20;;;;;;;14.20;57.01;100135.47;10377969;28;20762;-61
2022/05/04 04:53:36;;;;;;;9.10;7.55;;;;;;;14.08;57.75;100135.69;10335164;28;20053;-61
2022/05/04 04:58:37;;;;;;;8.90;7.43;;;;;;;14.12;56.98;100145.06;10366872;28;20057;-61
2022/05/04 05:03:39;;;;;;;7.72;6.63;;;;;;;14.03;57.56;100131.75;10358721;28;20061;-63
2022/05/04 05:08:43;;;;;;;7.40;6.57;;;;;;;14.10;57.60;100139.03;10353856;28;20049;-63
2022/05/04 05:19:05;;;;;;;8.60;6.80;;;;;;;14.23;56.62;100136.03;10351414;28;20132;-63
2022/05/04 05:24:06;;;;;;;7.53;6.55;;;;;;;14.22;56.85;100130.81;10348497;28;20058;-62
2022/05/04 05:29:08;;;;;;;8.23;6.18;;;;;;;14.41;56.78;100136.06;10349008;28;20053;-62
2022/05/04 05:34:11;;;;;;;8.82;6.75;;;;;;;14.35;56.83;100125.91;10353579;28;20160;-63
2022/05/04 05:39:12;;;;;;;8.35;7.05;;;;;;;14.61;56.28;100152.00;10352486;28;20055;-62
2022/05/04 05:44:14;;;;;;;8.35;7.05;;;;;;;14.70;56.78;100161.81;10351653;28;20045;-62
2022/05/04 05:49:16;;;;;;;9.30;7.32;;;;;;;14.68;56.51;100155.75;10352435;28;20672;-60
2022/05/04 05:54:17;;;;;;;8.27;7.47;;;;;;;14.77;56.51;100157.53;10351072;28;20579;-62
2022/05/04 05:59:19;;;;;;;6.90;6.18;;;;;;;14.82;56.22;100160.59;10352866;28;20059;-62
2022/05/04 06:04:20;;;;;;;9.25;6.72;;;;;;;14.96;56.90;100167.22;10349489;28;20045;-62
2022/05/04 06:09:22;;;;;;;8.15;6.18;;;;;;;15.12;56.88;100179.09;10351536;28;20057;-62
2022/05/04 06:14:23;;;;;;;6.97;6.28;;;;;;;15.19;56.07;100175.66;10348624;28;20055;-62
2022/05/04 06:19:24;;;;;;;7.05;6.35;;;;;;;15.25;55.73;100181.38;10343651;28;21233;-62
2022/05/04 06:24:29;;;;;;;10.98;7.28;;;;;;;15.19;55.77;100175.66;10350808;28;20054;-63
2022/05/04 06:34:51;;;;;;;9.35;8.35;;;;;;;15.27;55.83;100190.97;10347048;28;19992;-60
2022/05/04 06:39:52;;;;;;;10.32;7.20;;;;;;;15.35;55.88;100200.91;10349322;28;20784;-60
2022/05/04 06:44:54;;;;;;;7.45;6.75;;;;;;;15.38;56.04;100192.53;10348817;28;20045;-62
2022/05/04 06:49:55;;;;;;;8.25;7.22;;;;;;;15.35;56.10;100196.38;10348815;28;20045;-62
2022/05/04 06:54:57;;;;;;;8.43;7.53;;;;;;;15.29;55.27;100202.34;10345508;28;20195;-60
2022/05/04 06:59:59;;;;;;;10.60;7.13;;;;;;;15.36;56.66;100198.06;10345200;28;20897;-60
2022/05/04 07:05:01;;;;;;;10.63;7.50;;;;;;;15.50;56.60;100212.75;10344677;28;20187;-60
2022/05/04 07:10:03;;;;;;;7.18;6.45;;;;;;;15.37;56.23;100178.31;10349601;28;20048;-60
2022/05/04 07:15:05;;;;;;;7.97;6.65;;;;;;;15.70;56.14;100213.41;10349472;28;20053;-62
2022/05/04 07:20:08;;;;;;;8.27;7.40;;;;;;;15.74;55.81;100204.00;10348167;28;20083;-62
2022/05/04 07:25:10;;;;;;;7.57;6.10;;;;;;;15.90;55.65;100207.84;10349111;28;20057;-62
2022/05/04 07:30:12;;;;;;;8.88;7.10;;;;;;;16.00;55.00;100188.91;10347409;28;20045;-61
2022/05/04 07:35:13;;;;;;;8.07;7.28;;;;;;;16.13;54.65;100210.81;10347681;28;20053;-61
2022/05/04 07:45:35;;;;;;;10.68;7.15;;;;;;;16.44;53.69;100210.25;10345269;28;20297;-61
2022/05/04 07:50:37;;;;;;;8.90;6.85;;;;;;;16.35;53.49;100216.59;10350244;28;20390;-60
2022/05/04 07:55:38;;;;;;;9.55;6.75;;;;;;;16.17;53.35;100196.06;10354730;28;20049;-61
2022/05/04 08:06:00;;;;;;;7.10;6.22;;;;;;;16.41;53.22;100199.84;10356979;28;20045;-61
2022/05/04 08:11:02;;;;;;;7.22;6.10;;;;;;;16.90;52.32;100210.75;10352673;28;20042;-60
2022/05/04 08:16:04;;;;;;;6.72;6.03;;;;;;;17.24;51.76;100215.13;10354056;28;20145;-61
2022/05/04 08:21:09;;;;;;;8.45;5.50;;;;;;;17.87;50.43;100212.69;10353982;28;20077;-64
2022/05/04 08:26:12;;;;;;;8.75;6.10;;;;;;;18.28;48.97;100199.13;10350222;28;20060;-61
2022/05/04 08:31:14;;;;;;;7.95;5.97;;;;;;;18.70;47.99;100208.66;10351169;28;20042;-60
2022/05/04 08:36:17;;;;;;;6.57;5.88;;;;;;;18.70;48.05;100211.34;10346536;28;20044;-59
2022/05/04 08:41:22;;;;;;;8.32;6.68;;;;;;;18.90;47.80;100194.78;10353497;28;20243;-61
2022/05/04 08:46:25;;;;;;;9.15;7.25;;;;;;;19.26;46.33;100202.25;10358995;28;20049;-60
2022/05/04 08:51:27;;;;;;;7.78;6.35;;;;;;;19.37;46.57;100198.28;10357187;28;20049;-60
2022/05/04 08:56:30;;;;;;;13.80;6.68;;;;;;;19.55;46.32;100189.84;10348598;28;20057;-59
2022/05/04 09:01:33;;;;;;;8.73;6.80;;;;;;;19.76;46.20;100198.06;10345415;28;20060;-59
2022/05/04 09:06:44;;;;;;;7.13;5.80;;;;;;;20.09;45.24;100196.88;10351883;28;20056;-60
2022/05/04 09:11:46;;;;;;;7.50;6.15;;;;;;;20.46;44.05;100189.66;10351277;28;20045;-59
2022/05/04 09:16:47;;;;;;;10.55;7.50;;;;;;;21.05;41.95;100191.34;10346739;28;20747;-59
2022/05/04 09:21:49;;;;;;;6.20;5.60;;;;;;;21.49;41.98;100194.84;10347310;28;20163;-59
2022/05/04 09:26:53;;;;;;;6.00;5.40;;;;;;;21.36;42.15;100177.47;10347196;28;20049;-61
2022/05/04 09:31:55;;;;;;;8.32;6.22;;;;;;;21.06;42.44;100193.00;10345133;28;20049;-59
2022/05/04 09:47:54;;;;;;;8.55;6.25;;;;;;;20.57;43.23;100172.13;10350440;28;20239;-59
2022/05/04 09:52:57;;;;;;;8.98;8.07;;;;;;;21.32;42.22;100169.94;10348364;28;20227;-59
2022/05/04 09:57:58;;;;;;;8.40;6.95;;;;;;;21.41;40.41;100182.28;10362729;28;20843;-62
2022/05/04 10:03:00;;;;;;;8.70;6.95;;;;;;;21.22;41.60;100188.38;10350257;28;20432;-60
2022/05/04 10:08:02;;;;;;;8.05;7.03;;;;;;;22.05;39.53;100177.72;10351130;28;20184;-59
2022/05/04 10:13:03;;;;;;;6.07;5.47;;;;;;;22.77;38.25;100167.38;10347758;28;20560;-60
2022/05/04 10:18:12;;;;;;;7.97;5.57;;;;;;;23.37;37.99;100169.31;10348270;28;20657;-60
2022/05/04 10:23:19;;;;;;;6.30;5.70;;;;;;;24.23;36.46;100153.88;10351494;28;20049;-60
2022/05/04 10:28:20;;;;;;;8.63;7.05;;;;;;;24.42;36.03;100141.25;10361886;28;20102;-61
2022/05/04 10:33:31;;;;;;;6.80;5.90;;;;;;;24.32;35.49;100141.69;10350129;28;20187;-60
2022/05/04 10:38:35;;;;;;;8.13;7.22;;;;;;;23.37;35.43;100136.72;10342418;28;20053;-60
2022/05/04 10:43:41;;;;;;;6.38;5.78;;;;;;;23.73;36.60;100138.13;10344441;28;20053;-59
2022/05/04 10:49:04;;;;;;;7.57;6.97;;;;;;;23.94;33.54;100145.22;10345373;28;20068;-59
2022/05/04 10:54:13;;;;;;;6.50;5.10;;;;;;;23.47;35.78;100123.56;10345023;28;20057;-60
2022/05/04 10:59:30;;;;;;;5.68;5.18;;;;;;;24.69;34.37;100131.88;10344407;28;20497;-60
2022/05/04 11:04:34;;;;;;;7.53;6.03;;;;;;;25.33;32.80;100120.94;10345353;28;20516;-60
2022/05/04 11:09:42;;;;;;;6.80;5.25;;;;;;;26.06;33.34;100124.81;10362278;28;20060;-61
2022/05/04 11:14:44;;;;;;;5.10;4.70;;;;;;;26.54;31.75;100108.63;10334804;28;20056;-59
2022/05/04 11:19:47;;;;;;;6.20;5.60;;;;;;;26.91;31.62;100112.06;10336293;28;20712;-61
2022/05/04 11:24:49;;;;;;;6.80;6.10;;;;;;;26.87;31.17;100119.03;10350940;28;20046;-63
2022/05/04 11:29:50;;;;;;;4.93;4.45;;;;;;;27.17;31.38;100102.59;10343104;28;20446;-62
2022/05/04 11:34:53;;;;;;;6.20;5.60;;;;;;;27.27;30.64;100102.00;10338887;28;20218;-62
2022/05/04 11:39:54;;;;;;;4.55;4.15;;;;;;;27.27;31.35;100090.25;10340844;28;20045;-60
2022/05/04 11:44:57;;;;;;;6.30;5.18;;;;;;;27.48;29.11;100091.56;10342703;28;20069;-62
2022/05/04 11:49:59;;;;;;;6.47;5.57;;;;;;;27.55;30.41;100091.41;10345446;28;20199;-65
2022/05/04 11:55:04;;;;;;;6.72;5.70;;;;;;;27.49;28.27;100087.78;10358862;28;20057;-60
2022/05/04 12:00:13;;;;;;;5.97;5.38;;;;;;;27.58;29.38;100088.22;10344786;28;20118;-60
2022/05/04 12:05:15;;;;;;;6.72;4.75;;;;;;;27.40;29.58;100076.38;10344695;28;20483;-59
2022/05/04 12:10:17;;;;;;;6.78;5.50;;;;;;;27.73;29.56;100088.56;10343556;28;20136;-61
2022/05/04 12:15:22;;;;;;;5.80;5.10;;;;;;;27.14;29.90;100072.19;10344064;28;20049;-61
2022/05/04 12:20:24;;;;;;;6.28;5.57;;;;;;;26.58;30.66;100066.16;10341212;28;20045;-61
2022/05/04 12:25:26;;;;;;;8.13;7.10;;;;;;;26.27;30.91;100068.06;10344139;28;20050;-59
2022/05/04 12:35:48;;;;;;;5.70;5.15;;;;;;;26.16;32.75;100047.88;10352149;28;19936;-59
2022/05/04 12:40:50;;;;;;;6.60;5.13;;;;;;;26.08;32.53;100040.84;10365290;28;20642;-60
2022/05/04 12:45:56;;;;;;;6.75;5.97;;;;;;;26.61;31.68;100049.31;10349511;28;20045;-61
2022/05/04 12:51:04;;;;;;;5.53;4.88;;;;;;;26.81;31.20;100041.66;10349018;28;20049;-60
2022/05/04 13:01:30;;;;;;;6.22;4.80;;;;;;;25.96;33.30;100030.91;10346489;28;20049;-60
2022/05/04 13:06:32;;;;;;;6.63;5.65;;;;;;;26.24;32.50;100005.78;10350150;28;20056;-62
2022/05/04 13:11:34;;;;;;;5.10;4.60;;;;;;;25.99;32.45;100023.16;10351140;28;20118;-60
2022/05/04 13:16:36;;;;;;;;;;;;;;;25.29;32.83;100032.53;10350660;28;20064;-61
2022/05/04 13:21:38;;;;;;;6.55;4.28;;;;;;;25.50;33.31;100017.66;10348579;28;20392;-60
2022/05/04 13:26:40;;;;;;;5.38;3.95;;;;;;;25.75;32.84;100014.84;10350139;28;21562;-61
2022/05/04 13:31:41;;;;;;;3.75;3.45;;;;;;;25.95;33.16;100013.72;10370724;28;20625;-61
2022/05/04 13:36:43;;;;;;;5.97;3.75;;;;;;;26.06;32.16;100010.25;10347349;28;20050;-61
2022/05/04 13:41:45;;;;;;;4.45;4.00;;;;;;;25.80;32.85;99999.69;10350486;28;20045;-61
2022/05/04 13:46:46;;;;;;;4.90;3.97;;;;;;;24.85;34.04;99999.88;10349638;28;20444;-60
2022/05/04 13:57:09;;;;;;;3.95;3.35;;;;;;;25.14;33.52;99999.38;10349499;28;20059;-61
2022/05/04 14:02:11;;;;;;;4.90;4.13;;;;;;;25.03;33.03;99987.34;10345499;28;20053;-62
2022/05/04 14:07:13;;;;;;;4.63;3.50;;;;;;;24.90;32.94;99991.03;10345528;28;20080;-60
2022/05/04 14:12:14;;;;;;;4.28;3.65;;;;;;;24.62;33.48;100005.94;10346830;28;20053;-61
2022/05/04 14:17:15;;;;;;;4.53;3.30;;;;;;;24.27;33.17;99995.50;10346577;28;20091;-61
2022/05/04 14:22:17;;;;;;;4.38;3.30;;;;;;;23.84;33.77;100004.31;10347057;28;20057;-61
2022/05/04 14:27:19;;;;;;;4.38;3.25;;;;;;;23.78;34.61;100010.59;10345663;28;20087;-60
2022/05/04 14:32:20;;;;;;;4.25;3.85;;;;;;;23.92;34.80;100006.81;10349913;28;20130;-61
2022/05/04 14:37:22;;;;;;;4.60;3.92;;;;;;;23.99;33.80;100002.16;10348771;28;20056;-60
2022/05/04 14:42:23;;;;;;;3.95;3.40;;;;;;;23.90;34.97;99997.19;10346765;28;20058;-60
2022/05/04 14:47:25;;;;;;;7.57;3.78;;;;;;;23.85;34.76;99999.72;10345237;28;20082;-60
2022/05/04 14:52:26;;;;;;;3.95;3.60;;;;;;;23.90;34.52;99994.47;10345724;28;20041;-61
2022/05/04 14:57:28;;;;;;;5.53;3.55;;;;;;;23.97;34.53;99998.00;10345754;28;20111;-60
2022/05/04 15:02:33;;;;;;;3.95;2.95;;;;;;;23.73;34.98;99977.81;10342117;28;20045;-61
2022/05/04 15:07:34;;;;;;;7.28;3.85;;;;;;;23.70;35.18;99989.13;10346221;28;20053;-62
2022/05/04 15:12:35;;;;;;;8.80;4.03;;;;;;;23.41;35.35;99964.19;10347557;28;20055;-61
2022/05/04 15:17:41;;;;;;;4.43;3.92;;;;;;;23.44;35.46;99983.56;10345077;28;20049;-61
2022/05/04 15:22:42;;;;;;;4.97;3.75;;;;;;;23.56;35.47;99986.47;10345199;28;20069;-61
2022/05/04 15:27:44;;;;;;;4.10;3.60;;;;;;;23.51;35.26;99994.44;10341092;28;20472;-62
2022/05/04 15:32:45;;;;;;;4.05;3.65;;;;;;;23.45;35.53;99995.28;10344278;28;20132;-64
2022/05/04 15:37:47;;;;;;;4.30;3.70;;;;;;;23.35;35.68;99995.72;10346529;28;20057;-61
2022/05/04 15:42:48;;;;;;;3.50;3.25;;;;;;;23.23;35.17;99987.41;10345815;28;20207;-63
2022/05/04 15:47:49;;;;;;;4.50;3.20;;;;;;;23.16;35.62;100000.16;10344358;28;20049;-62
2022/05/04 15:53:12;;;;;;;3.75;3.45;;;;;;;22.92;35.78;99985.34;10369861;28;20601;-63
2022/05/04 15:58:13;;;;;;;4.07;3.58;;;;;;;22.90;35.83;100007.28;10361401;28;20057;-63
2022/05/04 16:08:35;;;;;;;6.15;3.50;;;;;;;22.85;36.39;100003.53;10343409;28;20106;-63
2022/05/04 16:13:37;;;;;;;6.47;3.83;;;;;;;22.85;36.29;100007.09;10347769;28;20951;-60
2022/05/04 16:23:58;;;;;;;6.53;3.58;;;;;;;22.56;36.46;99992.91;10352619;28;20136;-61
2022/05/04 16:29:01;;;;;;;4.35;3.92;;;;;;;22.38;36.63;99979.13;10359379;28;20811;-64
2022/05/04 16:34:03;;;;;;;3.70;3.27;;;;;;;22.40;36.70;99993.31;10355071;28;20050;-61
2022/05/04 16:39:05;;;;;;;3.40;3.10;;;;;;;22.33;36.97;99992.47;10351482;28;20064;-60
2022/05/04 16:44:07;;;;;;;5.57;3.65;;;;;;;22.11;37.32;99973.63;10349917;28;20435;-62
2022/05/04 16:49:08;;;;;;;6.18;4.53;;;;;;;22.01;37.37;99982.19;10351269;28;20049;-60
2022/05/04 16:54:10;;;;;;;3.70;3.40;;;;;;;21.96;37.81;99990.06;10352696;28;20275;-60
2022/05/04 16:59:11;;;;;;;4.15;3.72;;;;;;;21.85;37.79;99983.38;10350052;28;20510;-61
2022/05/04 17:04:18;;;;;;;6.00;3.90;;;;;;;21.63;37.98;100000.81;10349266;28;21092;-60
2022/05/04 17:09:19;;;;;;;6.40;4.80;;;;;;;21.61;38.91;99998.31;10352181;28;20045;-60
2022/05/04 17:14:21;;;;;;;4.82;3.55;;;;;;;21.48;38.90;100018.03;10350714;28;22315;-60
2022/05/04 17:19:22;;;;;;;5.05;3.72;;;;;;;21.24;40.75;100021.19;10348547;28;20052;-61
2022/05/04 17:24:23;;;;;;;5.15;4.65;;;;;;;20.55;44.26;100028.16;10346770;28;20752;-61
2022/05/04 17:29:26;;;;;;;6.72;4.57;;;;;;;20.48;47.54;100047.84;10351367;28;20091;-61
2022/05/04 17:39:48;;;;;;;11.68;6.97;;;;;;;20.10;56.12;100036.44;10350892;28;20183;-61
2022/05/04 17:44:52;;;;;;;7.88;7.18;;;;;;;19.96;51.73;100041.69;10348962;28;20053;-62
2022/05/04 17:49:55;;;;;;;8.27;7.60;;;;;;;19.78;55.44;100050.19;10351298;28;20045;-61
2022/05/04 17:54:56;;;;;;;8.07;7.15;;;;;;;19.81;57.28;100050.88;10350183;28;20061;-61
2022/05/04 17:59:57;;;;;;;9.60;6.80;;;;;;;19.70;55.58;100046.75;10349499;28;20038;-62
2022/05/04 18:04:59;;;;;;;7.75;6.97;;;;;;;19.78;56.98;100058.28;10337492;28;20068;-61
2022/05/04 18:10:00;;;;;;;8.90;8.10;;;;;;;19.55;57.22;100060.25;10342049;28;20662;-61
2022/05/04 18:15:02;;;;;;;8.30;7.60;;;;;;;19.52;58.25;100068.75;10354353;28;20195;-62
2022/05/04 18:20:06;;;;;;;8.98;8.07;;;;;;;19.53;59.48;100070.41;10345897;28;20049;-63
2022/05/04 18:25:08;;;;;;;8.30;7.57;;;;;;;19.53;60.33;100068.56;10348883;28;20136;-61
2022/05/04 18:30:10;;;;;;;9.38;8.57;;;;;;;19.55;60.90;100076.47;10340124;28;20148;-62
2022/05/04 18:35:11;;;;;;;9.93;9.10;;;;;;;19.38;58.69;100065.84;10364672;28;20073;-61
2022/05/04 18:40:14;;;;;;;10.60;8.95;;;;;;;19.32;58.03;100065.75;10342820;28;20052;-62
2022/05/04 18:45:15;;;;;;;9.90;8.70;;;;;;;19.32;56.78;100081.94;10350636;28;20796;-61
2022/05/04 18:50:17;;;;;;;8.57;7.80;;;;;;;19.05;57.54;100055.41;10350042;28;20053;-61
2022/05/04 18:55:19;;;;;;;9.45;8.60;;;;;;;19.27;58.14;100105.94;10348083;28;20106;-61
2022/05/04 19:00:20;;;;;;;9.40;8.60;;;;;;;19.21;56.87;100107.50;10347261;28;20060;-62
2022/05/04 19:05:22;;;;;;;8.35;7.53;;;;;;;19.16;54.93;100108.06;10346374;28;20041;-62
2022/05/04 19:10:23;;;;;;;8.77;7.90;;;;;;;19.14;56.33;100122.75;10346437;28;20090;-62
2022/05/04 19:15:24;;;;;;;10.60;8.02;;;;;;;18.87;53.58;100125.00;10344860;28;20159;-63
2022/05/04 19:20:26;;;;;;;8.77;7.50;;;;;;;18.79;54.89;100135.81;10333953;28;20053;-63
2022/05/04 19:25:27;;;;;;;7.93;7.15;;;;;;;18.70;55.21;100129.66;10341826;28;20054;-64
2022/05/04 19:30:29;;;;;;;7.85;7.13;;;;;;;18.47;55.43;100138.56;10343283;28;20124;-64
2022/05/04 19:35:30;;;;;;;8.32;6.72;;;;;;;18.55;54.79;100130.44;10338142;28;20129;-62
2022/05/04 19:40:32;;;;;;;9.32;8.43;;;;;;;18.54;56.18;100141.41;10337838;28;20065;-63
2022/05/04 19:45:35;;;;;;;9.32;7.43;;;;;;;18.35;55.92;100140.81;10331775;28;20057;-62
2022/05/04 19:50:38;;;;;;;8.40;7.50;;;;;;;18.46;55.49;100157.59;10347167;28;20129;-62
2022/05/04 19:55:39;;;;;;;8.38;7.53;;;;;;;17.93;57.14;100144.72;10349274;28;20057;-61
2022/05/04 20:00:40;;;;;;;9.60;8.60;;;;;;;17.85;57.93;100174.34;10345152;28;20128;-64
2022/05/04 20:05:42;;;;;;;8.32;7.63;;;;;;;17.64;58.50;100175.75;10346617;28;20444;-63
2022/05/04 20:10:43;;;;;;;9.35;8.02;;;;;;;17.83;58.89;100179.91;10342497;28;20562;-63
2022/05/04 20:15:45;;;;;;;9.23;8.43;;;;;;;17.87;58.68;100193.03;10348149;28;20045;-64
2022/05/04 20:20:46;;;;;;;8.88;7.97;;;;;;;17.90;58.35;100204.31;10348904;28;20128;-63
2022/05/04 20:25:49;;;;;;;9.32;8.45;;;;;;;17.90;58.81;100198.09;10350527;28;20065;-64
2022/05/04 20:30:50;;;;;;;9.77;8.98;;;;;;;17.96;58.70;100209.00;10346033;28;20111;-63
2022/05/04 20:35:52;;;;;;;9.05;8.30;;;;;;;17.84;59.46;100213.06;10350642;28;20045;-63
2022/05/04 20:40:53;;;;;;;9.23;8.43;;;;;;;17.78;59.94;100203.81;10350606;28;20050;-62
2022/05/04 20:45:54;;;;;;;9.00;8.20;;;;;;;17.84;59.77;100221.97;10346417;28;20053;-62
2022/05/04 20:56:16;;;;;;;8.82;8.00;;;;;;;17.62;60.40;100220.81;10334816;28;20214;-63
2022/05/04 21:01:17;;;;;;;9.48;8.48;;;;;;;17.57;62.99;100238.50;10346856;28;20652;-63
2022/05/04 21:06:19;;;;;;;9.45;8.57;;;;;;;17.53;63.17;100237.97;10348816;28;20057;-63
2022/05/04 21:11:20;;;;;;;10.20;9.18;;;;;;;17.47;63.72;100246.72;10346794;28;20054;-62
2022/05/04 21:16:23;;;;;;;9.90;8.82;;;;;;;17.49;64.26;100260.88;10348130;28;20771;-63
2022/05/04 21:21:24;;;;;;;8.98;8.10;;;;;;;17.43;64.30;100261.53;10346625;28;20092;-63
2022/05/04 21:26:25;;;;;;;9.20;8.40;;;;;;;17.39;64.43;100274.50;10343899;28;20551;-63
2022/05/04 21:31:27;;;;;;;9.60;8.73;;;;;;;17.37;64.02;100271.13;10339037;28;20167;-62
2022/05/04 21:36:30;;;;;;;9.23;8.45;;;;;;;17.26;64.14;100258.00;10353766;28;20114;-63
2022/05/04 21:41:31;;;;;;;9.60;8.70;;;;;;;17.23;64.47;100267.22;10367237;28;20049;-63
2022/05/04 21:46:33;;;;;;;8.95;8.15;;;;;;;17.25;64.00;100267.06;10371798;28;20053;-63
2022/05/04 21:51:34;;;;;;;9.40;8.70;;;;;;;17.23;64.32;100269.91;10374951;28;20111;-64
2022/05/04 21:56:36;;;;;;;9.27;8.43;;;;;;;17.21;64.43;100263.88;10373141;28;20157;-64
2022/05/04 22:01:37;;;;;;;9.50;7.40;;;;;;;17.17;64.30;100284.03;10372862;28;20056;-62
2022/05/04 22:06:39;;;;;;;7.88;7.18;;;;;;;17.10;63.83;100275.81;10373876;28;20839;-62
2022/05/04 22:17:00;;;;;;;9.07;7.60;;;;;;;16.98;64.77;100270.91;10371847;28;20073;-64
2022/05/04 22:22:02;;;;;;;8.70;7.95;;;;;;;17.03;64.78;100295.47;10371425;28;20148;-63
2022/05/04 22:27:03;;;;;;;8.20;7.50;;;;;;;16.91;64.97;100274.25;10375043;28;20258;-63
2022/05/04 22:32:05;;;;;;;8.13;7.38;;;;;;;16.89;64.94;100295.09;10371995;28;20159;-63
2022/05/04 22:37:06;;;;;;;8.30;7.60;;;;;;;16.82;65.21;100291.34;10372010;28;20049;-62
2022/05/04 22:42:08;;;;;;;8.65;7.80;;;;;;;16.68;65.64;100273.13;10367034;28;20396;-63
2022/05/04 22:47:12;;;;;;;7.82;7.22;;;;;;;16.76;66.08;100294.66;10367990;28;20049;-63
2022/05/04 22:52:14;;;;;;;9.33;8.53;;;;;;;16.70;66.42;100290.78;10369974;28;20132;-63
2022/05/04 22:57:16;;;;;;;9.23;8.50;;;;;;;16.35;67.97;100297.16;10379834;28;20072;-63
2022/05/04 23:02:17;;;;;;;9.95;9.13;;;;;;;16.53;67.75;100306.00;10370222;28;20056;-62
2022/05/04 23:07:19;;;;;;;9.80;8.93;;;;;;;16.63;67.72;100299.66;10369902;28;20055;-62
2022/05/04 23:12:21;;;;;;;9.88;9.05;;;;;;;16.63;67.51;100296.97;10369826;28;20049;-64
2022/05/04 23:17:22;;;;;;;10.68;9.57;;;;;;;16.68;67.26;100300.00;10372746;28;20172;-64
2022/05/04 23:22:24;;;;;;;10.25;9.35;;;;;;;16.69;67.46;100296.31;10369548;28;20060;-63
2022/05/04 23:27:25;;;;;;;11.43;10.43;;;;;;;16.55;67.39;100285.19;10372450;28;20056;-63
2022/05/04 23:32:27;;;;;;;11.77;10.77;;;;;;;16.58;67.55;100292.91;10372337;28;20496;-63
2022/05/04 23:37:29;;;;;;;11.75;10.73;;;;;;;16.37;67.35;100268.31;10372041;28;20120;-62
2022/05/04 23:42:31;;;;;;;12.50;11.38;;;;;;;16.49;67.09;100283.16;10370326;28;20050;-63
2022/05/04 23:47:34;;;;;;;13.23;11.93;;;;;;;16.53;67.11;100300.63;10370820;28;20052;-63
2022/05/04 23:52:36;;;;;;;14.15;12.75;;;;;;;16.50;66.37;100298.28;10371475;28;20136;-62
2022/05/04 23:57:37;;;;;;;12.65;11.35;;;;;;;16.44;66.42;100290.84;10370585;28;20053;-63
